sensor_id;sensor_type;location;lat;lon;timestamp;P1;durP1;ratioP1;P2;durP2;ratioP2
58643;SDS011;44411;49.994;8.660;2023-04-03T00:00:20;3.35;;;2.15;;
58643;SDS011;44411;49.994;8.660;2023-04-03T00:02:45;5.47;;;2.25;;
58643;SDS011;44411;49.994;8.660;2023-04-03T00:05:10;4.85;;;2.20;;
58643;SDS011;44411;49.994;8.660;2023-04-03T00:07:35;4.07;;;2.17;;
58643;SDS011;44411;49.994;8.660;2023-04-03T00:10:01;3.60;;;2.17;;
58643;SDS011;44411;49.994;8.660;2023-04-03T00:12:26;4.78;;;2.38;;
58643;SDS011;44411;49.994;8.660;2023-04-03T00:14:51;3.33;;;2.27;;
58643;SDS011;44411;49.994;8.660;2023-04-03T00:17:16;3.43;;;1.90;;
58643;SDS011;44411;49.994;8.660;2023-04-03T00:19:41;4.27;;;2.30;;
58643;SDS011;44411;49.994;8.660;2023-04-03T00:22:07;4.05;;;2.00;;
58643;SDS011;44411;49.994;8.660;2023-04-03T00:24:32;3.40;;;2.30;;
58643;SDS011;44411;49.994;8.660;2023-04-03T00:26:57;3.90;;;2.27;;
58643;SDS011;44411;49.994;8.660;2023-04-03T00:29:22;4.90;;;2.33;;
58643;SDS011;44411;49.994;8.660;2023-04-03T00:31:47;3.63;;;1.70;;
58643;SDS011;44411;49.994;8.660;2023-04-03T00:34:13;4.83;;;2.30;;
58643;SDS011;44411;49.994;8.660;2023-04-03T00:36:38;5.07;;;2.40;;
58643;SDS011;44411;49.994;8.660;2023-04-03T00:39:03;3.87;;;2.10;;
58643;SDS011;44411;49.994;8.660;2023-04-03T00:41:28;3.50;;;1.90;;
58643;SDS011;44411;49.994;8.660;2023-04-03T00:43:53;3.95;;;2.30;;
58643;SDS011;44411;49.994;8.660;2023-04-03T00:46:19;6.78;;;2.13;;
58643;SDS011;44411;49.994;8.660;2023-04-03T00:48:44;4.47;;;2.05;;
58643;SDS011;44411;49.994;8.660;2023-04-03T00:51:12;4.03;;;1.95;;
58643;SDS011;44411;49.994;8.660;2023-04-03T00:53:39;3.25;;;2.10;;
58643;SDS011;44411;49.994;8.660;2023-04-03T00:56:05;3.75;;;2.03;;
58643;SDS011;44411;49.994;8.660;2023-04-03T00:58:42;5.47;;;2.10;;
58643;SDS011;44411;49.994;8.660;2023-04-03T01:01:10;3.42;;;2.20;;
58643;SDS011;44411;49.994;8.660;2023-04-03T01:03:37;5.13;;;2.13;;
58643;SDS011;44411;49.994;8.660;2023-04-03T01:06:02;3.85;;;2.28;;
58643;SDS011;44411;49.994;8.660;2023-04-03T01:08:28;5.95;;;2.08;;
58643;SDS011;44411;49.994;8.660;2023-04-03T01:10:53;4.45;;;2.35;;
58643;SDS011;44411;49.994;8.660;2023-04-03T01:13:21;2.95;;;1.75;;
58643;SDS011;44411;49.994;8.660;2023-04-03T01:15:47;4.20;;;2.00;;
58643;SDS011;44411;49.994;8.660;2023-04-03T01:18:12;2.83;;;1.80;;
58643;SDS011;44411;49.994;8.660;2023-04-03T01:20:50;5.97;;;2.37;;
58643;SDS011;44411;49.994;8.660;2023-04-03T01:28:12;4.17;;;1.83;;
58643;SDS011;44411;49.994;8.660;2023-04-03T01:30:44;3.72;;;1.80;;
58643;SDS011;44411;49.994;8.660;2023-04-03T01:33:10;3.78;;;1.73;;
58643;SDS011;44411;49.994;8.660;2023-04-03T01:35:36;3.90;;;2.10;;
58643;SDS011;44411;49.994;8.660;2023-04-03T01:38:02;3.40;;;1.90;;
58643;SDS011;44411;49.994;8.660;2023-04-03T01:40:27;5.80;;;2.20;;
58643;SDS011;44411;49.994;8.660;2023-04-03T01:42:52;5.67;;;2.43;;
58643;SDS011;44411;49.994;8.660;2023-04-03T01:45:17;3.80;;;2.13;;
58643;SDS011;44411;49.994;8.660;2023-04-03T01:47:42;6.37;;;2.10;;
58643;SDS011;44411;49.994;8.660;2023-04-03T05:01:21;4.20;;;1.38;;
58643;SDS011;44411;49.994;8.660;2023-04-03T05:03:46;4.20;;;1.73;;
58643;SDS011;44411;49.994;8.660;2023-04-03T05:06:12;2.60;;;1.42;;
58643;SDS011;44411;49.994;8.660;2023-04-03T05:08:38;1.58;;;1.38;;
58643;SDS011;44411;49.994;8.660;2023-04-03T05:11:03;2.35;;;1.95;;
58643;SDS011;44411;49.994;8.660;2023-04-03T05:13:28;2.42;;;1.27;;
58643;SDS011;44411;49.994;8.660;2023-04-03T05:15:53;2.40;;;1.38;;
58643;SDS011;44411;49.994;8.660;2023-04-03T05:18:19;4.75;;;1.90;;
58643;SDS011;44411;49.994;8.660;2023-04-03T05:20:44;1.97;;;1.20;;
58643;SDS011;44411;49.994;8.660;2023-04-03T05:23:10;4.68;;;1.90;;
58643;SDS011;44411;49.994;8.660;2023-04-03T05:25:39;4.32;;;1.42;;
58643;SDS011;44411;49.994;8.660;2023-04-03T05:28:04;5.00;;;2.03;;
58643;SDS011;44411;49.994;8.660;2023-04-03T05:30:30;3.45;;;1.35;;
58643;SDS011;44411;49.994;8.660;2023-04-03T05:32:55;2.90;;;1.40;;
58643;SDS011;44411;49.994;8.660;2023-04-03T05:35:20;3.30;;;1.67;;
58643;SDS011;44411;49.994;8.660;2023-04-03T05:37:45;2.40;;;1.40;;
58643;SDS011;44411;49.994;8.660;2023-04-03T05:40:11;2.07;;;1.47;;
58643;SDS011;44411;49.994;8.660;2023-04-03T05:42:36;2.13;;;1.45;;
58643;SDS011;44411;49.994;8.660;2023-04-03T05:45:01;3.00;;;1.63;;
58643;SDS011;44411;49.994;8.660;2023-04-03T05:47:26;5.40;;;1.83;;
58643;SDS011;44411;49.994;8.660;2023-04-03T05:49:52;7.22;;;1.58;;
58643;SDS011;44411;49.994;8.660;2023-04-03T05:52:26;5.93;;;2.07;;
58643;SDS011;44411;49.994;8.660;2023-04-03T05:54:52;3.85;;;1.50;;
58643;SDS011;44411;49.994;8.660;2023-04-03T05:57:17;3.13;;;1.90;;
58643;SDS011;44411;49.994;8.660;2023-04-03T05:59:43;3.15;;;1.42;;
58643;SDS011;44411;49.994;8.660;2023-04-03T06:02:12;3.00;;;1.80;;
58643;SDS011;44411;49.994;8.660;2023-04-03T06:04:38;5.30;;;1.92;;
58643;SDS011;44411;49.994;8.660;2023-04-03T06:07:03;2.40;;;1.77;;
58643;SDS011;44411;49.994;8.660;2023-04-03T06:09:29;3.17;;;1.63;;
58643;SDS011;44411;49.994;8.660;2023-04-03T06:11:55;4.35;;;1.73;;
58643;SDS011;44411;49.994;8.660;2023-04-03T06:14:23;2.85;;;1.83;;
58643;SDS011;44411;49.994;8.660;2023-04-03T06:16:48;4.63;;;1.98;;
58643;SDS011;44411;49.994;8.660;2023-04-03T06:19:14;4.28;;;2.00;;
58643;SDS011;44411;49.994;8.660;2023-04-03T06:21:40;2.80;;;1.60;;
58643;SDS011;44411;49.994;8.660;2023-04-03T06:24:05;4.28;;;1.90;;
58643;SDS011;44411;49.994;8.660;2023-04-03T06:26:31;3.35;;;1.92;;
58643;SDS011;44411;49.994;8.660;2023-04-03T06:28:57;2.78;;;1.80;;
58643;SDS011;44411;49.994;8.660;2023-04-03T06:31:22;4.65;;;1.80;;
58643;SDS011;44411;49.994;8.660;2023-04-03T06:33:47;4.60;;;2.47;;
58643;SDS011;44411;49.994;8.660;2023-04-03T06:36:13;5.80;;;3.35;;
58643;SDS011;44411;49.994;8.660;2023-04-03T06:38:38;4.85;;;1.80;;
58643;SDS011;44411;49.994;8.660;2023-04-03T06:41:03;5.13;;;1.90;;
58643;SDS011;44411;49.994;8.660;2023-04-03T06:43:29;6.35;;;2.65;;
58643;SDS011;44411;49.994;8.660;2023-04-03T06:45:56;4.00;;;1.80;;
58643;SDS011;44411;49.994;8.660;2023-04-03T06:48:21;5.38;;;2.22;;
58643;SDS011;44411;49.994;8.660;2023-04-03T06:50:46;4.43;;;2.08;;
58643;SDS011;44411;49.994;8.660;2023-04-03T06:53:11;4.07;;;2.10;;
58643;SDS011;44411;49.994;8.660;2023-04-03T06:55:37;4.60;;;2.13;;
58643;SDS011;44411;49.994;8.660;2023-04-03T06:58:03;6.88;;;2.65;;
58643;SDS011;44411;49.994;8.660;2023-04-03T07:00:28;3.85;;;2.28;;
58643;SDS011;44411;49.994;8.660;2023-04-03T07:02:54;4.97;;;2.20;;
58643;SDS011;44411;49.994;8.660;2023-04-03T07:05:21;3.13;;;1.88;;
58643;SDS011;44411;49.994;8.660;2023-04-03T07:07:46;4.97;;;2.17;;
58643;SDS011;44411;49.994;8.660;2023-04-03T07:10:11;5.30;;;2.30;;
58643;SDS011;44411;49.994;8.660;2023-04-03T07:12:37;6.13;;;2.10;;
58643;SDS011;44411;49.994;8.660;2023-04-03T07:15:03;4.13;;;2.00;;
58643;SDS011;44411;49.994;8.660;2023-04-03T07:17:28;3.70;;;2.08;;
58643;SDS011;44411;49.994;8.660;2023-04-03T07:19:54;3.03;;;1.90;;
58643;SDS011;44411;49.994;8.660;2023-04-03T07:22:19;3.45;;;1.70;;
58643;SDS011;44411;49.994;8.660;2023-04-03T07:24:44;5.50;;;2.43;;
58643;SDS011;44411;49.994;8.660;2023-04-03T07:27:10;5.20;;;2.33;;
58643;SDS011;44411;49.994;8.660;2023-04-03T07:29:37;4.03;;;1.90;;
58643;SDS011;44411;49.994;8.660;2023-04-03T07:32:03;4.78;;;1.85;;
58643;SDS011;44411;49.994;8.660;2023-04-03T07:34:29;5.65;;;1.92;;
58643;SDS011;44411;49.994;8.660;2023-04-03T07:36:55;4.38;;;2.20;;
58643;SDS011;44411;49.994;8.660;2023-04-03T07:39:21;5.45;;;2.28;;
58643;SDS011;44411;49.994;8.660;2023-04-03T07:41:46;4.18;;;2.10;;
58643;SDS011;44411;49.994;8.660;2023-04-03T07:44:11;5.40;;;1.70;;
58643;SDS011;44411;49.994;8.660;2023-04-03T07:46:37;5.22;;;2.65;;
58643;SDS011;44411;49.994;8.660;2023-04-03T07:49:02;4.28;;;2.13;;
58643;SDS011;44411;49.994;8.660;2023-04-03T07:51:28;6.15;;;1.90;;
58643;SDS011;44411;49.994;8.660;2023-04-03T07:53:54;4.78;;;2.28;;
58643;SDS011;44411;49.994;8.660;2023-04-03T07:56:20;5.10;;;1.85;;
58643;SDS011;44411;49.994;8.660;2023-04-03T07:58:45;4.03;;;1.95;;
58643;SDS011;44411;49.994;8.660;2023-04-03T08:01:11;3.72;;;1.98;;
58643;SDS011;44411;49.994;8.660;2023-04-03T08:03:36;5.70;;;2.20;;
58643;SDS011;44411;49.994;8.660;2023-04-03T08:06:03;3.40;;;1.90;;
58643;SDS011;44411;49.994;8.660;2023-04-03T08:08:29;5.35;;;2.03;;
58643;SDS011;44411;49.994;8.660;2023-04-03T08:10:58;4.25;;;1.70;;
58643;SDS011;44411;49.994;8.660;2023-04-03T08:13:24;4.53;;;2.00;;
58643;SDS011;44411;49.994;8.660;2023-04-03T08:15:49;4.80;;;1.80;;
58643;SDS011;44411;49.994;8.660;2023-04-03T08:18:15;5.00;;;1.95;;
58643;SDS011;44411;49.994;8.660;2023-04-03T08:20:41;4.45;;;1.90;;
58643;SDS011;44411;49.994;8.660;2023-04-03T08:23:06;3.97;;;2.47;;
58643;SDS011;44411;49.994;8.660;2023-04-03T08:25:32;5.03;;;1.98;;
58643;SDS011;44411;49.994;8.660;2023-04-03T08:27:58;4.45;;;2.58;;
58643;SDS011;44411;49.994;8.660;2023-04-03T08:30:23;3.40;;;1.90;;
58643;SDS011;44411;49.994;8.660;2023-04-03T08:32:48;3.55;;;2.13;;
58643;SDS011;44411;49.994;8.660;2023-04-03T08:35:13;5.05;;;2.33;;
58643;SDS011;44411;49.994;8.660;2023-04-03T08:37:39;6.28;;;2.38;;
58643;SDS011;44411;49.994;8.660;2023-04-03T08:40:05;3.47;;;2.00;;
58643;SDS011;44411;49.994;8.660;2023-04-03T08:45:45;3.55;;;1.75;;
58643;SDS011;44411;49.994;8.660;2023-04-03T08:50:20;3.95;;;2.00;;
58643;SDS011;44411;49.994;8.660;2023-04-03T08:52:49;4.03;;;2.15;;
58643;SDS011;44411;49.994;8.660;2023-04-03T08:55:22;3.67;;;1.58;;
58643;SDS011;44411;49.994;8.660;2023-04-03T08:57:49;5.63;;;2.03;;
58643;SDS011;44411;49.994;8.660;2023-04-03T09:00:19;2.63;;;1.70;;
58643;SDS011;44411;49.994;8.660;2023-04-03T09:02:49;2.25;;;1.40;;
58643;SDS011;44411;49.994;8.660;2023-04-03T09:07:44;2.47;;;1.57;;
58643;SDS011;44411;49.994;8.660;2023-04-03T09:10:12;3.22;;;1.50;;
58643;SDS011;44411;49.994;8.660;2023-04-03T09:12:38;4.32;;;1.67;;
58643;SDS011;44411;49.994;8.660;2023-04-03T09:15:21;3.65;;;1.80;;
58643;SDS011;44411;49.994;8.660;2023-04-03T09:22:49;3.58;;;1.52;;
58643;SDS011;44411;49.994;8.660;2023-04-03T09:25:20;4.07;;;1.60;;
58643;SDS011;44411;49.994;8.660;2023-04-03T09:27:46;3.40;;;1.30;;
58643;SDS011;44411;49.994;8.660;2023-04-03T09:30:15;3.47;;;1.90;;
58643;SDS011;44411;49.994;8.660;2023-04-03T09:32:41;3.50;;;1.77;;
58643;SDS011;44411;49.994;8.660;2023-04-03T09:40:27;3.00;;;1.70;;
58643;SDS011;44411;49.994;8.660;2023-04-03T09:42:56;2.42;;;1.42;;
58643;SDS011;44411;49.994;8.660;2023-04-03T09:47:52;2.28;;;1.33;;
58643;SDS011;44411;49.994;8.660;2023-04-03T09:50:28;4.40;;;1.65;;
58643;SDS011;44411;49.994;8.660;2023-04-03T09:52:54;6.35;;;2.22;;
58643;SDS011;44411;49.994;8.660;2023-04-03T09:55:23;4.53;;;1.90;;
58643;SDS011;44411;49.994;8.660;2023-04-03T09:57:52;3.17;;;1.55;;
58643;SDS011;44411;49.994;8.660;2023-04-03T10:00:23;6.50;;;1.83;;
58643;SDS011;44411;49.994;8.660;2023-04-03T10:02:53;5.40;;;2.72;;
58643;SDS011;44411;49.994;8.660;2023-04-03T10:07:44;3.17;;;1.52;;
58643;SDS011;44411;49.994;8.660;2023-04-03T10:10:18;4.67;;;1.50;;
58643;SDS011;44411;49.994;8.660;2023-04-03T10:12:44;3.58;;;1.55;;
58643;SDS011;44411;49.994;8.660;2023-04-03T10:15:11;4.25;;;1.77;;
58643;SDS011;44411;49.994;8.660;2023-04-03T10:20:27;2.78;;;1.50;;
58643;SDS011;44411;49.994;8.660;2023-04-03T10:25:44;3.83;;;1.88;;
58643;SDS011;44411;49.994;8.660;2023-04-03T10:28:17;3.88;;;1.80;;
58643;SDS011;44411;49.994;8.660;2023-04-03T10:30:47;3.13;;;2.08;;
58643;SDS011;44411;49.994;8.660;2023-04-03T10:33:31;4.53;;;1.85;;
58643;SDS011;44411;49.994;8.660;2023-04-03T10:44:14;5.13;;;1.98;;
58643;SDS011;44411;49.994;8.660;2023-04-03T10:46:45;5.75;;;2.35;;
58643;SDS011;44411;49.994;8.660;2023-04-03T10:49:16;2.95;;;1.58;;
58643;SDS011;44411;49.994;8.660;2023-04-03T10:52:06;5.80;;;1.50;;
58643;SDS011;44411;49.994;8.660;2023-04-03T10:54:35;3.10;;;1.85;;
58643;SDS011;44411;49.994;8.660;2023-04-03T10:57:05;4.70;;;1.60;;
58643;SDS011;44411;49.994;8.660;2023-04-03T10:59:44;5.75;;;1.95;;
58643;SDS011;44411;49.994;8.660;2023-04-03T11:04:44;3.70;;;1.98;;
58643;SDS011;44411;49.994;8.660;2023-04-03T11:09:40;7.32;;;1.85;;
58643;SDS011;44411;49.994;8.660;2023-04-03T11:12:16;3.38;;;1.77;;
58643;SDS011;44411;49.994;8.660;2023-04-03T11:14:42;3.10;;;1.50;;
58643;SDS011;44411;49.994;8.660;2023-04-03T11:17:14;3.88;;;1.73;;
58643;SDS011;44411;49.994;8.660;2023-04-03T11:19:42;2.55;;;1.60;;
58643;SDS011;44411;49.994;8.660;2023-04-03T11:22:34;5.25;;;1.95;;
58643;SDS011;44411;49.994;8.660;2023-04-03T11:25:08;3.58;;;1.75;;
58643;SDS011;44411;49.994;8.660;2023-04-03T11:27:41;4.15;;;1.67;;
58643;SDS011;44411;49.994;8.660;2023-04-03T11:30:11;5.13;;;1.50;;
58643;SDS011;44411;49.994;8.660;2023-04-03T11:32:53;3.50;;;1.58;;
58643;SDS011;44411;49.994;8.660;2023-04-03T11:35:22;2.38;;;1.35;;
58643;SDS011;44411;49.994;8.660;2023-04-03T11:37:48;2.85;;;1.70;;
58643;SDS011;44411;49.994;8.660;2023-04-03T11:42:41;3.53;;;1.48;;
58643;SDS011;44411;49.994;8.660;2023-04-03T11:47:52;3.17;;;1.40;;
58643;SDS011;44411;49.994;8.660;2023-04-03T11:50:30;3.50;;;1.60;;
58643;SDS011;44411;49.994;8.660;2023-04-03T11:52:56;3.72;;;1.55;;
58643;SDS011;44411;49.994;8.660;2023-04-03T12:03:29;4.18;;;1.70;;
58643;SDS011;44411;49.994;8.660;2023-04-03T12:16:26;3.35;;;1.60;;
58643;SDS011;44411;49.994;8.660;2023-04-03T12:24:22;3.00;;;1.30;;
58643;SDS011;44411;49.994;8.660;2023-04-03T12:39:48;3.22;;;1.77;;
58643;SDS011;44411;49.994;8.660;2023-04-03T12:45:01;3.33;;;1.87;;
58643;SDS011;44411;49.994;8.660;2023-04-03T12:47:29;4.53;;;1.70;;
58643;SDS011;44411;49.994;8.660;2023-04-03T12:49:57;2.00;;;1.45;;
58643;SDS011;44411;49.994;8.660;2023-04-03T12:52:29;3.08;;;1.63;;
58643;SDS011;44411;49.994;8.660;2023-04-03T12:54:55;2.88;;;1.80;;
58643;SDS011;44411;49.994;8.660;2023-04-03T12:57:23;2.78;;;1.52;;
58643;SDS011;44411;49.994;8.660;2023-04-03T12:59:49;3.25;;;1.50;;
58643;SDS011;44411;49.994;8.660;2023-04-03T13:04:43;4.13;;;1.70;;
58643;SDS011;44411;49.994;8.660;2023-04-03T13:07:18;3.25;;;1.75;;
58643;SDS011;44411;49.994;8.660;2023-04-03T13:09:43;3.33;;;1.85;;
58643;SDS011;44411;49.994;8.660;2023-04-03T13:12:19;4.28;;;2.03;;
58643;SDS011;44411;49.994;8.660;2023-04-03T13:14:52;2.88;;;1.75;;
58643;SDS011;44411;49.994;8.660;2023-04-03T13:17:18;5.72;;;2.00;;
58643;SDS011;44411;49.994;8.660;2023-04-03T13:19:44;5.90;;;2.23;;
58643;SDS011;44411;49.994;8.660;2023-04-03T13:24:51;3.92;;;1.60;;
58643;SDS011;44411;49.994;8.660;2023-04-03T13:27:17;3.85;;;1.60;;
58643;SDS011;44411;49.994;8.660;2023-04-03T13:29:42;3.72;;;1.33;;
58643;SDS011;44411;49.994;8.660;2023-04-03T13:32:13;3.25;;;1.92;;
58643;SDS011;44411;49.994;8.660;2023-04-03T13:34:42;3.20;;;1.73;;
58643;SDS011;44411;49.994;8.660;2023-04-03T13:37:18;3.78;;;1.85;;
58643;SDS011;44411;49.994;8.660;2023-04-03T13:39:44;4.38;;;1.73;;
58643;SDS011;44411;49.994;8.660;2023-04-03T13:42:20;3.42;;;1.98;;
58643;SDS011;44411;49.994;8.660;2023-04-03T13:44:46;3.08;;;1.60;;
58643;SDS011;44411;49.994;8.660;2023-04-03T13:47:22;3.22;;;1.90;;
58643;SDS011;44411;49.994;8.660;2023-04-03T13:52:28;3.60;;;1.50;;
58643;SDS011;44411;49.994;8.660;2023-04-03T13:54:55;3.45;;;1.63;;
58643;SDS011;44411;49.994;8.660;2023-04-03T13:57:21;5.20;;;1.75;;
58643;SDS011;44411;49.994;8.660;2023-04-03T13:59:47;6.63;;;2.13;;
58643;SDS011;44411;49.994;8.660;2023-04-03T14:02:31;3.55;;;1.70;;
58643;SDS011;44411;49.994;8.660;2023-04-03T14:04:58;4.13;;;2.00;;
58643;SDS011;44411;49.994;8.660;2023-04-03T14:07:26;5.32;;;2.58;;
58643;SDS011;44411;49.994;8.660;2023-04-03T14:09:52;5.25;;;2.30;;
58643;SDS011;44411;49.994;8.660;2023-04-03T14:12:19;3.45;;;1.70;;
58643;SDS011;44411;49.994;8.660;2023-04-03T14:14:46;4.05;;;2.05;;
58643;SDS011;44411;49.994;8.660;2023-04-03T14:17:19;7.18;;;3.28;;
58643;SDS011;44411;49.994;8.660;2023-04-03T14:19:46;5.45;;;2.10;;
58643;SDS011;44411;49.994;8.660;2023-04-03T14:24:40;5.15;;;2.25;;
58643;SDS011;44411;49.994;8.660;2023-04-03T14:27:08;4.22;;;1.98;;
58643;SDS011;44411;49.994;8.660;2023-04-03T14:29:38;5.05;;;2.00;;
58643;SDS011;44411;49.994;8.660;2023-04-03T14:32:03;4.40;;;2.17;;
58643;SDS011;44411;49.994;8.660;2023-04-03T14:34:28;3.53;;;2.08;;
58643;SDS011;44411;49.994;8.660;2023-04-03T14:36:53;4.15;;;1.95;;
58643;SDS011;44411;49.994;8.660;2023-04-03T14:39:19;3.67;;;1.77;;
58643;SDS011;44411;49.994;8.660;2023-04-03T14:41:44;5.45;;;2.28;;
58643;SDS011;44411;49.994;8.660;2023-04-03T14:44:10;5.70;;;2.00;;
58643;SDS011;44411;49.994;8.660;2023-04-03T14:46:36;4.40;;;1.90;;
58643;SDS011;44411;49.994;8.660;2023-04-03T14:49:03;3.25;;;1.70;;
58643;SDS011;44411;49.994;8.660;2023-04-03T14:51:32;5.65;;;2.08;;
58643;SDS011;44411;49.994;8.660;2023-04-03T14:53:57;3.28;;;1.63;;
58643;SDS011;44411;49.994;8.660;2023-04-03T14:56:23;1.70;;;1.33;;
58643;SDS011;44411;49.994;8.660;2023-04-03T14:58:52;3.63;;;1.85;;
58643;SDS011;44411;49.994;8.660;2023-04-03T15:01:18;4.20;;;1.45;;
58643;SDS011;44411;49.994;8.660;2023-04-03T15:03:44;5.03;;;1.97;;
58643;SDS011;44411;49.994;8.660;2023-04-03T15:06:12;2.70;;;1.45;;
58643;SDS011;44411;49.994;8.660;2023-04-03T15:08:38;2.22;;;1.40;;
58643;SDS011;44411;49.994;8.660;2023-04-03T15:11:03;3.38;;;1.58;;
58643;SDS011;44411;49.994;8.660;2023-04-03T15:13:29;2.67;;;1.70;;
58643;SDS011;44411;49.994;8.660;2023-04-03T15:15:54;4.03;;;1.63;;
58643;SDS011;44411;49.994;8.660;2023-04-03T15:18:20;4.53;;;1.88;;
58643;SDS011;44411;49.994;8.660;2023-04-03T15:20:46;3.58;;;1.58;;
58643;SDS011;44411;49.994;8.660;2023-04-03T15:23:13;5.35;;;1.60;;
58643;SDS011;44411;49.994;8.660;2023-04-03T15:25:40;2.55;;;1.38;;
58643;SDS011;44411;49.994;8.660;2023-04-03T15:28:06;1.88;;;1.10;;
58643;SDS011;44411;49.994;8.660;2023-04-03T15:30:31;3.38;;;1.40;;
58643;SDS011;44411;49.994;8.660;2023-04-03T15:32:56;2.42;;;1.13;;
58643;SDS011;44411;49.994;8.660;2023-04-03T15:35:22;4.50;;;1.00;;
58643;SDS011;44411;49.994;8.660;2023-04-03T15:37:47;3.05;;;1.23;;
58643;SDS011;44411;49.994;8.660;2023-04-03T15:40:13;2.85;;;1.38;;
58643;SDS011;44411;49.994;8.660;2023-04-03T15:42:38;3.83;;;1.70;;
58643;SDS011;44411;49.994;8.660;2023-04-03T15:45:04;2.20;;;1.17;;
58643;SDS011;44411;49.994;8.660;2023-04-03T15:47:29;3.03;;;1.38;;
58643;SDS011;44411;49.994;8.660;2023-04-03T15:49:54;2.60;;;1.47;;
58643;SDS011;44411;49.994;8.660;2023-04-03T15:52:20;7.60;;;1.15;;
58643;SDS011;44411;49.994;8.660;2023-04-03T15:54:45;1.50;;;0.77;;
58643;SDS011;44411;49.994;8.660;2023-04-03T15:57:11;3.30;;;1.15;;
58643;SDS011;44411;49.994;8.660;2023-04-03T15:59:36;2.23;;;1.03;;
58643;SDS011;44411;49.994;8.660;2023-04-03T16:02:01;2.23;;;1.00;;
58643;SDS011;44411;49.994;8.660;2023-04-03T16:04:28;1.80;;;1.00;;
58643;SDS011;44411;49.994;8.660;2023-04-03T16:06:54;2.90;;;0.98;;
58643;SDS011;44411;49.994;8.660;2023-04-03T16:09:19;4.33;;;1.43;;
58643;SDS011;44411;49.994;8.660;2023-04-03T16:11:44;2.35;;;0.93;;
58643;SDS011;44411;49.994;8.660;2023-04-03T16:14:10;2.70;;;1.10;;
58643;SDS011;44411;49.994;8.660;2023-04-03T16:16:35;1.92;;;0.80;;
58643;SDS011;44411;49.994;8.660;2023-04-03T16:19:01;1.38;;;0.90;;
58643;SDS011;44411;49.994;8.660;2023-04-03T16:21:27;2.55;;;0.90;;
58643;SDS011;44411;49.994;8.660;2023-04-03T16:23:52;2.47;;;1.05;;
58643;SDS011;44411;49.994;8.660;2023-04-03T16:26:18;1.38;;;0.90;;
58643;SDS011;44411;49.994;8.660;2023-04-03T16:28:43;2.03;;;1.00;;
58643;SDS011;44411;49.994;8.660;2023-04-03T16:31:08;1.92;;;1.02;;
58643;SDS011;44411;49.994;8.660;2023-04-03T16:33:34;2.47;;;0.95;;
58643;SDS011;44411;49.994;8.660;2023-04-03T16:35:59;3.20;;;1.20;;
58643;SDS011;44411;49.994;8.660;2023-04-03T16:38:24;2.88;;;1.00;;
58643;SDS011;44411;49.994;8.660;2023-04-03T16:40:52;1.83;;;1.03;;
58643;SDS011;44411;49.994;8.660;2023-04-03T16:43:21;2.35;;;1.15;;
58643;SDS011;44411;49.994;8.660;2023-04-03T16:45:46;2.33;;;0.90;;
58643;SDS011;44411;49.994;8.660;2023-04-03T16:48:11;2.53;;;1.20;;
58643;SDS011;44411;49.994;8.660;2023-04-03T16:50:38;2.72;;;1.13;;
58643;SDS011;44411;49.994;8.660;2023-04-03T16:53:04;3.07;;;0.90;;
58643;SDS011;44411;49.994;8.660;2023-04-03T16:55:29;3.00;;;1.00;;
58643;SDS011;44411;49.994;8.660;2023-04-03T16:57:54;3.33;;;1.52;;
58643;SDS011;44411;49.994;8.660;2023-04-03T17:00:20;3.42;;;1.10;;
58643;SDS011;44411;49.994;8.660;2023-04-03T17:02:45;2.95;;;1.10;;
58643;SDS011;44411;49.994;8.660;2023-04-03T17:05:10;3.97;;;1.40;;
58643;SDS011;44411;49.994;8.660;2023-04-03T17:07:36;1.87;;;1.00;;
58643;SDS011;44411;49.994;8.660;2023-04-03T17:10:01;1.95;;;1.20;;
58643;SDS011;44411;49.994;8.660;2023-04-03T17:12:26;2.47;;;1.13;;
58643;SDS011;44411;49.994;8.660;2023-04-03T17:14:51;4.00;;;1.50;;
58643;SDS011;44411;49.994;8.660;2023-04-03T17:17:21;2.20;;;1.27;;
58643;SDS011;44411;49.994;8.660;2023-04-03T17:19:46;1.75;;;1.02;;
58643;SDS011;44411;49.994;8.660;2023-04-03T17:22:17;3.28;;;1.13;;
58643;SDS011;44411;49.994;8.660;2023-04-03T17:24:43;2.10;;;1.10;;
58643;SDS011;44411;49.994;8.660;2023-04-03T17:27:08;3.17;;;1.30;;
58643;SDS011;44411;49.994;8.660;2023-04-03T17:29:34;4.40;;;1.67;;
58643;SDS011;44411;49.994;8.660;2023-04-03T17:31:59;2.13;;;1.00;;
58643;SDS011;44411;49.994;8.660;2023-04-03T17:34:24;3.67;;;1.38;;
58643;SDS011;44411;49.994;8.660;2023-04-03T17:36:49;3.88;;;1.30;;
58643;SDS011;44411;49.994;8.660;2023-04-03T17:39:15;3.25;;;1.17;;
58643;SDS011;44411;49.994;8.660;2023-04-03T17:41:40;2.80;;;1.20;;
58643;SDS011;44411;49.994;8.660;2023-04-03T17:44:06;2.83;;;1.50;;
58643;SDS011;44411;49.994;8.660;2023-04-03T17:46:32;2.58;;;1.30;;
58643;SDS011;44411;49.994;8.660;2023-04-03T17:48:57;3.63;;;1.20;;
58643;SDS011;44411;49.994;8.660;2023-04-03T17:51:26;5.57;;;1.58;;
58643;SDS011;44411;49.994;8.660;2023-04-03T17:53:51;1.87;;;1.20;;
58643;SDS011;44411;49.994;8.660;2023-04-03T17:56:17;2.13;;;1.27;;
58643;SDS011;44411;49.994;8.660;2023-04-03T17:58:43;2.50;;;1.40;;
58643;SDS011;44411;49.994;8.660;2023-04-03T18:01:14;4.13;;;1.52;;
58643;SDS011;44411;49.994;8.660;2023-04-03T18:03:41;3.38;;;2.03;;
58643;SDS011;44411;49.994;8.660;2023-04-03T18:06:07;3.13;;;1.38;;
58643;SDS011;44411;49.994;8.660;2023-04-03T18:08:34;3.90;;;1.60;;
58643;SDS011;44411;49.994;8.660;2023-04-03T18:11:00;3.53;;;1.58;;
58643;SDS011;44411;49.994;8.660;2023-04-03T18:13:25;3.33;;;1.35;;
58643;SDS011;44411;49.994;8.660;2023-04-03T18:15:51;3.28;;;1.83;;
58643;SDS011;44411;49.994;8.660;2023-04-03T18:18:16;4.10;;;1.60;;
58643;SDS011;44411;49.994;8.660;2023-04-03T18:20:41;3.13;;;1.38;;
58643;SDS011;44411;49.994;8.660;2023-04-03T18:23:06;6.90;;;1.80;;
58643;SDS011;44411;49.994;8.660;2023-04-03T18:25:31;4.47;;;2.03;;
58643;SDS011;44411;49.994;8.660;2023-04-03T18:27:57;2.88;;;1.50;;
58643;SDS011;44411;49.994;8.660;2023-04-03T18:30:24;3.47;;;1.55;;
58643;SDS011;44411;49.994;8.660;2023-04-03T18:32:50;3.63;;;1.55;;
58643;SDS011;44411;49.994;8.660;2023-04-03T18:35:16;2.45;;;1.25;;
58643;SDS011;44411;49.994;8.660;2023-04-03T18:37:41;4.70;;;1.77;;
58643;SDS011;44411;49.994;8.660;2023-04-03T18:40:06;3.15;;;1.70;;
58643;SDS011;44411;49.994;8.660;2023-04-03T18:42:32;6.13;;;1.52;;
58643;SDS011;44411;49.994;8.660;2023-04-03T18:44:58;2.70;;;1.50;;
58643;SDS011;44411;49.994;8.660;2023-04-03T18:47:26;2.15;;;1.00;;
58643;SDS011;44411;49.994;8.660;2023-04-03T18:49:51;1.75;;;1.00;;
58643;SDS011;44411;49.994;8.660;2023-04-03T18:52:16;4.00;;;1.50;;
58643;SDS011;44411;49.994;8.660;2023-04-03T18:54:42;3.47;;;1.50;;
58643;SDS011;44411;49.994;8.660;2023-04-03T18:57:07;2.57;;;1.17;;
58643;SDS011;44411;49.994;8.660;2023-04-03T18:59:32;2.80;;;1.23;;
58643;SDS011;44411;49.994;8.660;2023-04-03T19:01:57;3.17;;;1.40;;
58643;SDS011;44411;49.994;8.660;2023-04-03T19:04:24;3.38;;;1.60;;
58643;SDS011;44411;49.994;8.660;2023-04-03T19:06:50;2.10;;;1.17;;
58643;SDS011;44411;49.994;8.660;2023-04-03T19:09:17;3.53;;;1.30;;
58643;SDS011;44411;49.994;8.660;2023-04-03T19:11:42;3.35;;;1.40;;
58643;SDS011;44411;49.994;8.660;2023-04-03T19:14:07;2.17;;;1.05;;
58643;SDS011;44411;49.994;8.660;2023-04-03T19:16:33;2.72;;;1.42;;
58643;SDS011;44411;49.994;8.660;2023-04-03T19:18:58;4.18;;;1.27;;
58643;SDS011;44411;49.994;8.660;2023-04-03T19:21:24;1.75;;;1.13;;
58643;SDS011;44411;49.994;8.660;2023-04-03T19:23:49;4.70;;;1.25;;
58643;SDS011;44411;49.994;8.660;2023-04-03T19:26:14;3.63;;;1.15;;
58643;SDS011;44411;49.994;8.660;2023-04-03T19:28:40;3.53;;;1.40;;
58643;SDS011;44411;49.994;8.660;2023-04-03T19:31:12;2.67;;;1.45;;
58643;SDS011;44411;49.994;8.660;2023-04-03T19:33:37;3.45;;;1.60;;
58643;SDS011;44411;49.994;8.660;2023-04-03T19:36:05;2.60;;;1.50;;
58643;SDS011;44411;49.994;8.660;2023-04-03T19:38:30;1.65;;;1.35;;